Cajamar, Brazil
Current Conditions -  °F | °C
As of 8:00 AM on Friday 21 Nov 2014 (Local Time) from SBMT Reporting Station
Clear Clear  
Wind Chill: 70°   Ceiling: Unl
Heat Index: 70°   Visibility: 5mi
Dew Point: 59°   Wind: 5mph
Humidity: 68%   Direction: 90°E
Pressure: 30.06"   Gusts: NA
Location:  23.36°S, 46.88°W
Report Text: SBMT 211000Z 09004KT 8000 NSC 21/15 Q1018
Loading
Personal Weather Stations






























Interactive Weather Map New forecast layout! Learn more

10-Day Weather Forecast

Advertisements
Track Severe Weather on mobile